Time;durP1;ratioP1;P1;durP2;ratioP2;P2;SDS_P1;SDS_P2;PMS_P1;PMS_P2;Temp;Humidity;BMP_temperature;BMP_pressure;BME280_temperature;BME280_humidity;BME280_pressure;Samples;Min_cycle;Max_cycle;Signal;HPM_P1;HPM_P2
2023/08/16 00:00:03;;;;;;;3.00;2.53;;;22.50;99.90;22.70;100816.00;;;;4983704;27;110856;-66
2023/08/16 00:02:29;;;;;;;3.05;2.40;;;22.50;99.90;22.70;100813.00;;;;4984588;28;92824;-64
2023/08/16 00:04:54;;;;;;;4.15;3.28;;;22.50;99.90;22.70;100807.00;;;;4983827;27;93693;-65
2023/08/16 00:07:20;;;;;;;3.95;3.22;;;22.50;99.90;22.60;100801.00;;;;4983878;27;93942;-65
2023/08/16 00:09:45;;;;;;;3.60;2.85;;;22.50;99.90;22.60;100806.00;;;;4982862;27;111241;-66
2023/08/16 00:12:11;;;;;;;5.32;2.97;;;22.50;99.90;22.60;100796.00;;;;4986135;27;107413;-65
2023/08/16 00:14:37;;;;;;;2.22;2.05;;;22.40;99.90;22.60;100799.00;;;;4981977;27;122539;-65
2023/08/16 00:17:03;;;;;;;4.05;2.55;;;22.40;99.90;22.60;100805.00;;;;4983721;28;122521;-65
2023/08/16 00:19:29;;;;;;;2.88;2.42;;;22.40;99.90;22.50;100801.00;;;;4984412;27;93006;-65
2023/08/16 00:21:55;;;;;;;2.60;2.38;;;22.40;99.90;22.50;100808.00;;;;4984342;27;92933;-66
2023/08/16 00:24:20;;;;;;;3.15;2.47;;;22.40;99.90;22.50;100805.00;;;;4983241;27;121631;-64
2023/08/16 00:26:46;;;;;;;5.32;3.42;;;22.30;99.90;22.50;100803.00;;;;4987503;27;122431;-65
2023/08/16 00:29:12;;;;;;;2.85;2.53;;;22.30;99.90;22.50;100796.00;;;;4982757;27;109504;-64
2023/08/16 00:31:37;;;;;;;2.88;2.63;;;22.30;99.90;22.40;100799.00;;;;4987381;27;94453;-65
2023/08/16 00:34:03;;;;;;;3.00;2.58;;;22.30;99.90;22.40;100806.00;;;;4981322;27;93652;-65
2023/08/16 00:36:29;;;;;;;3.17;2.67;;;22.20;99.90;22.30;100810.00;;;;4982556;27;121360;-66
2023/08/16 00:38:54;;;;;;;5.60;2.95;;;22.20;99.90;22.30;100811.00;;;;4983753;27;110885;-66
2023/08/16 00:41:20;;;;;;;1.90;1.70;;;22.20;99.90;22.30;100805.00;;;;4983158;27;109151;-66
2023/08/16 00:43:46;;;;;;;4.10;2.58;;;22.20;99.90;22.30;100819.00;;;;4982418;27;121717;-67
2023/08/16 00:46:13;;;;;;;3.67;3.08;;;22.10;99.90;22.30;100813.00;;;;4985867;27;92796;-66
2023/08/16 00:48:42;;;;;;;3.00;2.70;;;22.10;99.90;22.20;100816.00;;;;4984088;27;95701;-66
2023/08/16 00:51:09;;;;;;;3.28;2.40;;;22.10;99.90;22.20;100822.00;;;;4984525;27;92831;-67
2023/08/16 00:53:37;;;;;;;2.28;2.05;;;22.20;99.90;22.20;100814.00;;;;4985822;27;93311;-67
2023/08/16 00:56:04;;;;;;;2.20;1.92;;;22.10;99.90;22.20;100808.00;;;;4985054;27;111386;-67
2023/08/16 00:58:30;;;;;;;2.88;2.20;;;22.10;99.90;22.20;100803.00;;;;4986684;27;100477;-68
2023/08/16 01:00:56;;;;;;;2.95;2.20;;;22.10;99.90;22.20;100806.00;;;;4985578;27;93119;-67
2023/08/16 01:03:22;;;;;;;2.20;1.95;;;22.10;99.90;22.20;100814.00;;;;4982704;27;121869;-67
2023/08/16 01:05:47;;;;;;;2.30;1.45;;;22.10;99.90;22.20;100815.00;;;;4979640;27;122493;-67
2023/08/16 01:08:13;;;;;;;2.88;2.20;;;22.10;99.90;22.20;100817.00;;;;4978823;27;109948;-66
2023/08/16 01:10:50;;;;;;;3.55;1.73;;;22.10;99.90;22.20;100823.00;;;;4984655;27;110279;-67
2023/08/16 01:13:34;;;;;;;2.63;1.95;;;22.10;99.90;22.20;100826.00;;;;4985150;27;93802;-67
2023/08/16 01:16:07;;;;;;;5.88;1.75;;;22.10;99.90;22.20;100829.00;;;;4967843;28;94565;-67
2023/08/16 01:18:37;;;;;;;2.28;1.83;;;22.00;99.90;22.20;100839.00;;;;4986584;27;92839;-67
2023/08/16 01:21:06;;;;;;;5.97;2.22;;;22.00;99.90;22.20;100834.00;;;;4984112;27;93824;-67
2023/08/16 01:23:53;;;;;;;2.45;1.88;;;22.00;99.90;22.10;100838.00;;;;4988287;27;93012;-67
2023/08/16 01:26:32;;;;;;;2.65;2.22;;;22.00;99.90;22.10;100826.00;;;;4982956;27;100066;-67
2023/08/16 01:29:01;;;;;;;3.13;1.73;;;22.00;99.90;22.10;100827.00;;;;4984146;28;100457;-67
2023/08/16 01:31:26;;;;;;;3.75;1.60;;;22.00;99.90;22.10;100821.00;;;;4982376;27;93111;-67
2023/08/16 01:33:52;;;;;;;2.20;1.65;;;21.90;99.90;22.10;100826.00;;;;4983187;27;113038;-67
2023/08/16 01:36:18;;;;;;;2.83;1.70;;;21.90;99.90;22.00;100821.00;;;;4983063;27;93199;-67
2023/08/16 01:38:45;;;;;;;2.35;2.13;;;21.90;99.90;22.00;100828.00;;;;4982356;27;104547;-67
2023/08/16 01:41:32;;;;;;;1.98;1.48;;;21.90;99.90;21.90;100832.00;;;;4985730;27;92882;-66
2023/08/16 01:43:59;;;;;;;1.85;1.65;;;21.90;99.90;21.90;100839.00;;;;4984293;27;93909;-66
2023/08/16 01:46:26;;;;;;;1.55;1.38;;;21.80;99.90;21.90;100833.00;;;;4978935;27;104917;-66
2023/08/16 01:48:54;;;;;;;1.88;1.73;;;21.70;99.90;21.80;100847.00;;;;4981424;27;92935;-67
2023/08/16 01:51:20;;;;;;;2.22;1.60;;;21.70;99.90;21.80;100854.00;;;;4979916;27;99230;-66
2023/08/16 01:53:53;;;;;;;1.73;1.45;;;21.70;99.90;21.80;100852.00;;;;4981519;27;93934;-67
2023/08/16 01:56:20;;;;;;;1.17;1.15;;;21.60;99.90;21.70;100844.00;;;;4982949;27;92784;-67
2023/08/16 01:58:46;;;;;;;2.38;1.50;;;21.60;99.90;21.70;100844.00;;;;4983688;27;92961;-67
2023/08/16 02:01:13;;;;;;;1.83;1.73;;;21.50;99.90;21.70;100851.00;;;;4980546;27;92844;-67
2023/08/16 02:03:39;;;;;;;1.48;1.38;;;21.50;99.90;21.60;100847.00;;;;4985081;27;92136;-67
2023/08/16 02:06:05;;;;;;;2.03;1.70;;;21.50;99.90;21.60;100833.00;;;;4981498;27;110960;-67
2023/08/16 02:08:31;;;;;;;1.83;1.40;;;21.50;99.90;21.60;100837.00;;;;4981775;27;110699;-66
2023/08/16 02:10:56;;;;;;;2.17;1.27;;;21.50;99.90;21.60;100838.00;;;;4984513;27;107954;-67
2023/08/16 02:13:22;;;;;;;2.05;1.88;;;21.40;99.90;21.50;100833.00;;;;4984856;28;122187;-67
2023/08/16 02:15:47;;;;;;;2.42;1.50;;;21.40;99.90;21.50;100828.00;;;;4981457;27;121566;-67
2023/08/16 02:18:13;;;;;;;2.88;2.42;;;21.30;99.90;21.40;100836.00;;;;4980250;28;109785;-67
2023/08/16 02:20:40;;;;;;;3.60;1.60;;;21.30;99.90;21.40;100839.00;;;;4981684;27;94553;-68
2023/08/16 02:23:07;;;;;;;2.00;1.83;;;21.30;99.90;21.40;100836.00;;;;4984360;27;92996;-67
2023/08/16 02:25:33;;;;;;;4.03;2.17;;;21.20;99.90;21.30;100828.00;;;;4980096;27;116232;-67
2023/08/16 02:27:59;;;;;;;2.75;1.63;;;21.20;99.90;21.30;100833.00;;;;4980903;27;101331;-66
2023/08/16 02:30:25;;;;;;;2.38;1.77;;;21.20;99.90;21.30;100836.00;;;;4984405;27;93204;-66
2023/08/16 02:32:51;;;;;;;1.98;1.80;;;21.10;99.90;21.20;100829.00;;;;4979700;27;93690;-66
2023/08/16 02:35:16;;;;;;;1.70;1.60;;;21.10;99.90;21.20;100831.00;;;;4978569;27;120013;-66
2023/08/16 02:37:42;;;;;;;1.50;1.40;;;21.10;99.90;21.20;100828.00;;;;4980485;27;109028;-66
2023/08/16 02:40:09;;;;;;;2.15;1.65;;;21.10;99.90;21.20;100837.00;;;;4981171;27;93028;-66
2023/08/16 02:42:35;;;;;;;2.35;2.15;;;21.00;99.90;21.10;100837.00;;;;4977580;27;108503;-66
2023/08/16 02:45:00;;;;;;;2.97;2.60;;;21.00;99.90;21.10;100835.00;;;;4978669;27;121949;-67
2023/08/16 02:47:27;;;;;;;3.28;2.13;;;21.00;99.90;21.10;100831.00;;;;4979824;27;111660;-67
2023/08/16 02:49:52;;;;;;;2.03;1.58;;;21.00;99.90;21.10;100827.00;;;;4979606;27;108210;-66
2023/08/16 02:52:18;;;;;;;1.98;1.80;;;20.90;99.90;21.00;100831.00;;;;4982474;27;119938;-67
2023/08/16 02:54:44;;;;;;;2.03;1.73;;;20.90;99.90;21.00;100832.00;;;;4985888;27;93270;-67
2023/08/16 02:57:10;;;;;;;2.40;2.20;;;20.90;99.90;21.00;100843.00;;;;4980242;27;109201;-65
2023/08/16 02:59:41;;;;;;;2.50;2.22;;;20.90;99.90;20.90;100844.00;;;;4982598;27;107746;-66
2023/08/16 03:02:07;;;;;;;3.17;2.17;;;20.80;99.90;20.90;100839.00;;;;4977040;27;93380;-66
2023/08/16 03:04:33;;;;;;;1.73;1.52;;;20.80;99.90;20.90;100839.00;;;;4981953;27;93618;-67
2023/08/16 03:07:01;;;;;;;4.55;2.15;;;20.80;99.90;20.90;100833.00;;;;4979292;27;93022;-65
2023/08/16 03:09:28;;;;;;;1.98;1.55;;;20.70;99.90;20.80;100835.00;;;;4983638;27;93022;-65
2023/08/16 03:11:54;;;;;;;2.03;1.83;;;20.70;99.90;20.80;100844.00;;;;4981871;27;106289;-65
2023/08/16 03:14:20;;;;;;;1.67;1.58;;;20.70;99.90;20.80;100857.00;;;;4980033;27;94157;-65
2023/08/16 03:16:46;;;;;;;3.83;2.10;;;20.70;99.90;20.80;100859.00;;;;4978587;27;110967;-66
2023/08/16 03:19:12;;;;;;;2.63;2.20;;;20.70;99.90;20.80;100858.00;;;;4979537;27;92862;-66
2023/08/16 03:21:37;;;;;;;1.58;1.48;;;20.60;99.90;20.80;100862.00;;;;4977588;27;123671;-66
2023/08/16 03:24:03;;;;;;;2.30;1.63;;;20.70;99.90;20.80;100860.00;;;;4982524;27;93937;-66
2023/08/16 03:26:29;;;;;;;2.70;1.83;;;20.60;99.90;20.80;100863.00;;;;4984230;27;99041;-65
2023/08/16 03:28:55;;;;;;;2.90;2.30;;;20.70;99.90;20.80;100864.00;;;;4983984;27;110497;-66
2023/08/16 03:31:20;;;;;;;1.45;1.02;;;20.70;99.90;20.80;100863.00;;;;4983286;27;93171;-66
2023/08/16 03:33:46;;;;;;;1.80;1.70;;;20.70;99.90;20.80;100862.00;;;;4980980;27;122052;-66
2023/08/16 03:36:12;;;;;;;2.08;1.88;;;20.70;99.90;20.80;100868.00;;;;4983617;27;109192;-66
2023/08/16 03:38:38;;;;;;;1.80;1.60;;;20.70;99.90;20.90;100870.00;;;;4984394;27;94126;-66
2023/08/16 03:41:03;;;;;;;1.67;1.58;;;20.70;99.90;20.90;100863.00;;;;4985889;27;92820;-66
2023/08/16 03:43:31;;;;;;;1.70;1.50;;;20.70;99.90;20.80;100872.00;;;;4981122;27;122058;-66
2023/08/16 03:45:56;;;;;;;1.75;1.48;;;20.70;99.90;20.90;100867.00;;;;4985332;28;92844;-66
2023/08/16 03:48:22;;;;;;;11.85;1.52;;;20.70;99.90;20.90;100868.00;;;;4984370;28;93847;-66
2023/08/16 03:50:48;;;;;;;4.05;2.50;;;20.70;99.90;20.90;100876.00;;;;4983801;27;122000;-66
2023/08/16 03:53:13;;;;;;;2.40;1.67;;;20.70;99.90;20.90;100884.00;;;;4983731;28;121830;-66
2023/08/16 03:55:42;;;;;;;1.40;1.30;;;20.70;99.90;20.90;100874.00;;;;4984938;28;93127;-66
2023/08/16 03:58:08;;;;;;;3.97;1.80;;;20.70;99.90;20.90;100875.00;;;;4983679;28;107708;-66
2023/08/16 04:00:33;;;;;;;1.58;1.27;;;20.70;99.90;20.90;100870.00;;;;4985162;27;119549;-68
2023/08/16 04:02:59;;;;;;;2.05;1.65;;;20.70;99.90;20.90;100879.00;;;;4983639;27;122606;-66
2023/08/16 04:05:25;;;;;;;2.15;1.95;;;20.80;99.90;20.90;100881.00;;;;4983106;27;92080;-66
2023/08/16 04:07:50;;;;;;;2.13;1.77;;;20.80;99.90;20.90;100879.00;;;;4985974;27;93450;-66
2023/08/16 04:10:22;;;;;;;3.30;2.00;;;20.80;99.90;20.90;100892.00;;;;4982924;28;122303;-66
2023/08/16 04:12:48;;;;;;;2.10;1.65;;;20.80;99.90;20.90;100884.00;;;;4979614;27;124259;-66
2023/08/16 04:15:13;;;;;;;2.95;2.22;;;20.80;99.90;20.90;100887.00;;;;4981595;28;92950;-67
2023/08/16 04:17:39;;;;;;;1.52;1.42;;;20.80;99.90;20.90;100886.00;;;;4986584;28;93504;-66
2023/08/16 04:20:07;;;;;;;2.70;1.50;;;20.80;99.90;20.90;100891.00;;;;4984739;28;93863;-66
2023/08/16 04:22:34;;;;;;;2.55;1.48;;;20.70;99.90;20.90;100887.00;;;;4985643;27;92962;-66
2023/08/16 04:25:01;;;;;;;1.40;1.25;;;20.70;99.90;20.90;100897.00;;;;4985640;28;93097;-66
2023/08/16 04:27:27;;;;;;;2.22;2.03;;;20.70;99.90;20.90;100888.00;;;;4984743;28;92865;-66
2023/08/16 04:29:53;;;;;;;1.75;1.63;;;20.70;99.90;20.90;100891.00;;;;4985095;28;93102;-66
2023/08/16 04:32:19;;;;;;;1.27;1.17;;;20.80;99.90;20.90;100900.00;;;;4982971;28;121878;-67
2023/08/16 04:34:44;;;;;;;2.33;1.38;;;20.80;99.90;20.90;100895.00;;;;4982891;28;109535;-66
2023/08/16 04:37:10;;;;;;;2.55;2.00;;;20.80;99.90;20.90;100890.00;;;;4982866;27;108971;-66
2023/08/16 04:39:36;;;;;;;2.45;1.85;;;20.70;99.90;20.90;100895.00;;;;4984009;27;122473;-66
2023/08/16 04:42:01;;;;;;;2.10;1.90;;;20.80;99.90;20.90;100898.00;;;;4983124;27;92708;-67
2023/08/16 04:44:27;;;;;;;2.05;1.50;;;20.70;99.90;20.90;100904.00;;;;4983621;28;109867;-68
2023/08/16 04:46:52;;;;;;;2.58;1.70;;;20.80;99.90;20.90;100910.00;;;;4981460;27;107341;-67
2023/08/16 04:49:18;;;;;;;1.70;1.60;;;20.80;99.90;20.90;100907.00;;;;4977444;27;121444;-67
2023/08/16 04:51:44;;;;;;;2.20;2.05;;;20.80;99.90;20.90;100907.00;;;;4966125;27;122638;-67
2023/08/16 04:54:10;;;;;;;1.67;1.58;;;20.80;99.90;20.90;100913.00;;;;4984574;27;109200;-67
2023/08/16 04:56:36;;;;;;;2.08;1.75;;;20.80;99.90;21.00;100908.00;;;;4983881;27;107984;-67
2023/08/16 04:59:01;;;;;;;2.42;1.80;;;20.80;99.90;21.00;100914.00;;;;4982732;27;94079;-67
2023/08/16 05:01:27;;;;;;;2.08;1.88;;;20.90;99.90;21.10;100915.00;;;;4982919;27;121033;-67
2023/08/16 05:03:53;;;;;;;3.47;2.05;;;20.90;99.90;21.20;100917.00;;;;4982281;27;109718;-67
2023/08/16 05:06:19;;;;;;;2.28;1.58;;;21.00;99.90;21.20;100923.00;;;;4981662;27;94734;-67
2023/08/16 05:08:45;;;;;;;2.65;1.52;;;21.00;99.90;21.30;100923.00;;;;4980512;27;121111;-67
2023/08/16 05:11:10;;;;;;;4.38;2.67;;;21.10;99.90;21.30;100920.00;;;;4986464;27;96003;-67
2023/08/16 05:13:36;;;;;;;3.55;2.20;;;21.10;99.90;21.40;100920.00;;;;4983552;27;110311;-66
2023/08/16 05:16:02;;;;;;;1.92;1.52;;;21.20;99.90;21.40;100919.00;;;;4982271;27;109074;-67
2023/08/16 05:18:28;;;;;;;1.90;1.80;;;21.20;99.90;21.50;100917.00;;;;4983830;27;92218;-66
2023/08/16 05:20:59;;;;;;;3.30;1.70;;;21.30;99.90;21.50;100929.00;;;;4978623;27;121899;-66
2023/08/16 05:23:24;;;;;;;2.42;1.58;;;21.30;99.90;21.50;100926.00;;;;4981318;27;92944;-66
2023/08/16 05:25:50;;;;;;;2.25;1.80;;;21.40;99.90;21.60;100935.00;;;;4093744;27;10000714;-66
2023/08/16 05:28:16;;;;;;;2.13;1.40;;;21.40;99.90;21.60;100929.00;;;;4099550;27;10000849;-66
2023/08/16 05:30:41;;;;;;;2.10;1.45;;;21.40;99.90;21.60;100935.00;;;;4978626;27;93112;-66
2023/08/16 05:33:07;;;;;;;1.55;1.45;;;21.50;99.90;21.70;100944.00;;;;4978996;27;93417;-66
2023/08/16 05:35:33;;;;;;;2.22;1.73;;;21.50;99.90;21.80;100946.00;;;;4981138;27;93474;-67
2023/08/16 05:37:59;;;;;;;2.47;1.45;;;21.60;99.90;21.80;100951.00;;;;4978401;27;93325;-67
2023/08/16 05:40:25;;;;;;;1.77;1.60;;;21.60;99.90;21.90;100954.00;;;;4089949;27;10000766;-67
2023/08/16 05:42:51;;;;;;;2.09;1.81;;;21.70;99.90;22.10;100954.00;;;;4097084;27;10001075;-66
2023/08/16 05:45:16;;;;;;;3.20;2.47;;;21.80;99.90;22.20;100950.00;;;;4976399;27;125008;-67
2023/08/16 05:47:42;;;;;;;4.50;2.00;;;21.90;99.90;22.20;100944.00;;;;4978030;27;93221;-66
2023/08/16 05:50:09;;;;;;;5.93;2.08;;;22.00;99.90;22.30;100956.00;;;;4981497;28;93981;-67
2023/08/16 05:52:34;;;;;;;2.85;1.80;;;21.90;99.90;22.30;100955.00;;;;4976913;27;113922;-65
2023/08/16 05:55:00;;;;;;;2.15;1.55;;;22.10;99.90;22.40;100961.00;;;;4977516;27;122346;-66
2023/08/16 05:57:25;;;;;;;2.28;2.08;;;22.20;99.90;22.40;100961.00;;;;4960151;28;111647;-66
2023/08/16 05:59:51;;;;;;;2.78;2.08;;;22.20;99.90;22.50;100973.00;;;;4976356;28;110569;-65
2023/08/16 06:02:17;;;;;;;2.47;1.83;;;22.30;99.90;22.50;100968.00;;;;4976648;28;114939;-65
2023/08/16 06:04:42;;;;;;;1.67;1.55;;;22.30;99.90;22.50;100973.00;;;;4978899;28;122455;-68
2023/08/16 06:07:17;;;;;;;2.00;1.83;;;22.40;99.90;22.50;100971.00;;;;4979714;28;92274;-66
2023/08/16 06:09:43;;;;;;;1.70;1.20;;;22.40;99.90;22.50;100966.00;;;;4978255;28;93026;-66
2023/08/16 06:12:08;;;;;;;3.22;2.63;;;22.40;99.90;22.60;100959.00;;;;4977857;28;93009;-66
2023/08/16 06:14:34;;;;;;;3.42;2.20;;;22.40;99.90;22.70;100961.00;;;;4977813;28;121719;-65
2023/08/16 06:17:00;;;;;;;4.05;1.63;;;22.50;99.90;22.70;100965.00;;;;4977425;28;109965;-65
2023/08/16 06:19:26;;;;;;;2.80;1.60;;;22.60;99.90;22.90;100964.00;;;;4978493;28;107996;-65
2023/08/16 06:21:51;;;;;;;1.88;1.70;;;22.60;99.90;22.90;100965.00;;;;4978979;28;93769;-66
2023/08/16 06:24:17;;;;;;;2.40;2.20;;;22.70;99.90;23.00;100961.00;;;;4976300;28;123109;-66
2023/08/16 06:26:42;;;;;;;2.50;2.05;;;22.80;99.90;23.10;100966.00;;;;4978130;28;111171;-66
2023/08/16 06:29:08;;;;;;;1.92;1.63;;;22.90;99.90;23.30;100969.00;;;;4976410;28;109069;-66
2023/08/16 06:31:34;;;;;;;4.07;2.03;;;23.00;99.90;23.40;100970.00;;;;4976872;27;122539;-66
2023/08/16 06:34:02;;;;;;;2.92;1.70;;;23.20;99.90;23.70;100972.00;;;;4980238;28;120903;-66
2023/08/16 06:36:28;;;;;;;3.15;1.85;;;23.40;99.90;24.00;100967.00;;;;4981141;28;92927;-66
2023/08/16 06:38:54;;;;;;;3.60;1.58;;;23.70;99.90;24.30;100973.00;;;;4979741;28;94380;-66
2023/08/16 06:41:20;;;;;;;2.13;1.83;;;24.00;99.90;24.60;100972.00;;;;4976495;28;122470;-66
2023/08/16 06:43:46;;;;;;;2.40;1.52;;;24.30;99.90;24.80;100985.00;;;;4974859;28;100472;-66
2023/08/16 06:46:12;;;;;;;3.95;1.50;;;24.50;99.90;24.90;100976.00;;;;4978815;28;110478;-66
2023/08/16 06:48:37;;;;;;;1.35;1.15;;;24.60;99.90;25.10;100972.00;;;;4977441;28;106823;-66
2023/08/16 06:51:04;;;;;;;2.42;1.52;;;24.80;99.90;25.10;100974.00;;;;4975388;28;122975;-66
2023/08/16 06:53:32;;;;;;;1.55;1.20;;;24.90;99.90;25.20;100968.00;;;;4979663;28;93246;-66
2023/08/16 06:55:58;;;;;;;2.65;1.63;;;24.80;99.90;25.10;100978.00;;;;4979991;28;92178;-66
2023/08/16 06:58:24;;;;;;;2.03;1.70;;;24.90;99.90;25.10;100980.00;;;;4977849;28;93042;-66
2023/08/16 07:00:50;;;;;;;1.80;1.50;;;24.90;99.90;25.10;100989.00;;;;4978981;28;116691;-66
2023/08/16 07:03:17;;;;;;;2.00;1.52;;;24.90;99.90;24.90;100985.00;;;;4980998;28;93882;-67
2023/08/16 07:05:43;;;;;;;2.90;1.73;;;24.80;99.90;24.80;100985.00;;;;4981838;28;93049;-67
2023/08/16 07:08:09;;;;;;;2.15;2.03;;;24.70;99.90;24.70;100985.00;;;;4980759;28;93028;-66
2023/08/16 07:10:35;;;;;;;1.73;1.23;;;24.60;99.90;24.60;100994.00;;;;4981933;28;93286;-67
2023/08/16 07:13:02;;;;;;;1.83;1.73;;;24.50;99.90;24.60;100997.00;;;;4978132;28;121794;-67
2023/08/16 07:15:28;;;;;;;2.92;1.73;;;24.40;99.90;24.50;101006.00;;;;4981103;28;92877;-66
2023/08/16 07:17:54;;;;;;;1.73;1.60;;;24.30;99.90;24.50;101002.00;;;;4982813;28;93037;-67
2023/08/16 07:20:20;;;;;;;3.08;2.08;;;24.30;99.90;24.50;101006.00;;;;4980517;28;122233;-66
2023/08/16 07:22:45;;;;;;;2.08;1.63;;;24.30;99.90;24.70;101005.00;;;;4980268;28;120848;-66
2023/08/16 07:25:12;;;;;;;2.25;1.83;;;24.40;99.90;24.70;101004.00;;;;4976902;28;109563;-66
2023/08/16 07:27:37;;;;;;;4.28;2.15;;;24.50;99.90;24.90;101009.00;;;;4983368;27;94183;-66
2023/08/16 07:30:04;;;;;;;5.20;2.78;;;24.60;99.90;24.90;101008.00;;;;4982115;28;94071;-66
2023/08/16 07:32:31;;;;;;;1.73;1.63;;;24.60;99.90;25.20;101002.00;;;;4980371;28;94210;-66
2023/08/16 07:34:57;;;;;;;2.67;1.90;;;24.80;99.90;25.50;101003.00;;;;4984729;28;92963;-66
2023/08/16 07:37:23;;;;;;;2.83;2.10;;;25.10;99.90;25.70;101008.00;;;;4979762;28;96689;-66
2023/08/16 07:39:48;;;;;;;2.40;1.50;;;25.40;99.90;25.90;101010.00;;;;4979881;28;93556;-66
2023/08/16 07:42:18;;;;;;;2.15;1.80;;;25.60;99.90;26.10;101019.00;;;;4979465;28;121852;-66
2023/08/16 07:44:44;;;;;;;2.22;1.67;;;25.80;99.90;26.40;101018.00;;;;4977960;28;92240;-66
2023/08/16 07:47:11;;;;;;;2.13;1.40;;;26.00;99.90;26.60;101021.00;;;;4976704;28;101795;-66
2023/08/16 07:49:36;;;;;;;2.58;2.03;;;26.30;99.90;26.90;101024.00;;;;4981391;28;94202;-67
2023/08/16 07:52:02;;;;;;;2.85;2.03;;;26.50;99.90;27.10;101022.00;;;;4979990;28;104313;-66
2023/08/16 07:54:28;;;;;;;2.97;1.88;;;26.70;99.90;27.20;101026.00;;;;4976650;28;103355;-66
2023/08/16 07:56:54;;;;;;;3.75;1.58;;;26.90;99.90;27.30;101033.00;;;;4978399;28;92839;-68
2023/08/16 07:59:19;;;;;;;4.15;3.05;;;27.00;99.90;27.40;101036.00;;;;4979109;28;117001;-66
2023/08/16 08:01:45;;;;;;;5.97;2.05;;;27.10;99.90;27.60;101034.00;;;;4980035;28;122608;-66
2023/08/16 08:04:11;;;;;;;2.00;1.77;;;27.20;99.90;27.70;101034.00;;;;4978438;28;111647;-67
2023/08/16 08:06:37;;;;;;;3.78;1.75;;;27.40;99.90;27.90;101036.00;;;;4981916;28;98389;-67
2023/08/16 08:09:03;;;;;;;2.10;1.90;;;27.50;99.90;27.90;101026.00;;;;4981873;27;97104;-66
2023/08/16 08:11:29;;;;;;;3.20;1.85;;;27.60;99.90;28.00;101046.00;;;;4980589;28;92878;-66
2023/08/16 08:13:56;;;;;;;6.65;2.40;;;27.70;99.90;28.00;101042.00;;;;4981210;28;94351;-67
2023/08/16 08:16:23;;;;;;;4.93;2.45;;;27.70;99.90;27.90;101037.00;;;;4980806;28;93950;-67
2023/08/16 08:18:49;;;;;;;4.30;2.20;;;27.70;99.90;27.90;101047.00;;;;4982915;28;99070;-67
2023/08/16 08:21:14;;;;;;;3.85;2.03;;;27.60;99.90;27.80;101046.00;;;;4982610;28;115421;-67
2023/08/16 08:23:40;;;;;;;3.38;2.00;;;27.60;99.90;27.80;101053.00;;;;4977454;28;110707;-67
2023/08/16 08:26:06;;;;;;;1.88;1.65;;;27.60;99.90;27.90;101056.00;;;;4981058;27;109751;-67
2023/08/16 08:28:32;;;;;;;3.25;2.28;;;27.60;99.90;28.00;101043.00;;;;4980407;28;93525;-67
2023/08/16 08:31:02;;;;;;;3.92;2.15;;;27.70;99.90;28.10;101043.00;;;;4981859;27;111569;-67
2023/08/16 08:33:29;;;;;;;4.32;1.80;;;27.80;99.90;28.10;101053.00;;;;4980633;28;92253;-67
2023/08/16 08:35:56;;;;;;;1.85;1.67;;;27.80;99.90;28.10;101055.00;;;;4982256;28;92955;-67
2023/08/16 08:38:22;;;;;;;2.63;1.42;;;27.80;99.90;28.20;101056.00;;;;4978827;28;114537;-67
2023/08/16 08:40:59;;;;;;;1.73;1.58;;;27.90;99.90;28.20;101056.00;;;;4977322;28;116709;-67
2023/08/16 08:43:34;;;;;;;2.72;1.88;;;27.90;99.90;28.30;101061.00;;;;4980586;27;93591;-67
2023/08/16 08:46:00;;;;;;;3.28;1.65;;;28.00;99.90;28.40;101059.00;;;;4978923;28;92901;-67
2023/08/16 08:48:27;;;;;;;3.03;1.75;;;28.10;99.90;28.50;101062.00;;;;4982804;28;94330;-67
2023/08/16 08:50:54;;;;;;;2.65;2.45;;;28.20;99.90;28.70;101069.00;;;;4978952;28;93022;-67
2023/08/16 08:53:27;;;;;;;2.42;1.65;;;28.30;99.90;28.80;101057.00;;;;4981178;28;92947;-66
2023/08/16 08:55:54;;;;;;;1.73;1.63;;;28.50;99.90;29.00;101057.00;;;;4977855;28;101032;-65
2023/08/16 08:58:22;;;;;;;3.28;1.92;;;28.60;99.90;29.10;101067.00;;;;4978487;28;92328;-66
2023/08/16 09:00:49;;;;;;;1.83;1.73;;;28.70;99.90;29.20;101063.00;;;;4980202;28;93166;-65
2023/08/16 09:03:19;;;;;;;2.75;1.73;;;28.90;99.90;29.40;101059.00;;;;4978138;28;92995;-65
2023/08/16 09:05:45;;;;;;;1.90;1.67;;;29.00;99.90;29.60;101061.00;;;;4979062;28;93990;-64
2023/08/16 09:08:13;;;;;;;3.35;1.83;;;29.20;99.90;29.70;101062.00;;;;4977983;28;93184;-65
2023/08/16 09:10:40;;;;;;;3.55;1.88;;;29.30;99.90;29.90;101063.00;;;;4979827;28;93236;-66
2023/08/16 09:13:09;;;;;;;1.30;1.20;;;29.50;99.90;30.10;101064.00;;;;4977227;28;109200;-66
2023/08/16 09:15:36;;;;;;;2.63;1.55;;;29.60;99.90;30.40;101057.00;;;;4977936;28;92878;-66
2023/08/16 09:18:19;;;;;;;4.78;1.40;;;29.90;99.90;30.70;101060.00;;;;4980280;28;94502;-66
2023/08/16 09:20:45;;;;;;;1.35;1.25;;;30.20;99.90;30.90;101063.00;;;;4980245;27;93235;-66
2023/08/16 09:23:15;;;;;;;3.22;2.08;;;30.40;99.90;31.00;101055.00;;;;4978538;28;92160;-66
2023/08/16 09:25:41;;;;;;;2.92;1.98;;;30.60;99.90;31.10;101050.00;;;;4981017;28;93032;-66
2023/08/16 09:28:16;;;;;;;1.42;1.33;;;30.70;99.10;31.20;101063.00;;;;4979986;28;108304;-66
2023/08/16 09:30:43;;;;;;;2.80;2.35;;;30.80;98.90;31.20;101055.00;;;;4977909;28;93904;-66
2023/08/16 09:33:12;;;;;;;1.70;1.60;;;30.90;98.00;31.10;101059.00;;;;4978381;28;101791;-66
2023/08/16 09:35:48;;;;;;;6.57;1.88;;;30.80;97.30;31.10;101058.00;;;;4978389;28;94566;-66
2023/08/16 09:38:15;;;;;;;3.50;1.98;;;30.70;97.20;31.20;101059.00;;;;4980835;28;93967;-67
2023/08/16 09:40:53;;;;;;;2.28;2.05;;;30.80;97.00;31.40;101066.00;;;;4973530;28;95085;-66
2023/08/16 09:43:20;;;;;;;2.03;1.67;;;31.00;96.80;31.60;101070.00;;;;4976314;28;109448;-67
2023/08/16 09:45:54;;;;;;;2.60;1.98;;;31.10;96.30;31.80;101068.00;;;;4975998;28;94691;-67
2023/08/16 09:48:21;;;;;;;2.60;1.52;;;31.30;95.90;32.10;101072.00;;;;4981547;28;123008;-67
2023/08/16 09:50:47;;;;;;;3.90;2.10;;;31.60;95.20;32.10;101074.00;;;;4976870;28;93203;-69
2023/08/16 09:53:13;;;;;;;4.15;1.63;;;31.70;93.70;32.00;101074.00;;;;4982794;27;93089;-69
2023/08/16 09:55:42;;;;;;;3.78;1.75;;;31.60;93.30;32.00;101074.00;;;;4964534;28;94243;-69
2023/08/16 09:58:21;;;;;;;1.50;1.40;;;31.60;93.40;32.10;101075.00;;;;4979777;28;94926;-69
2023/08/16 10:00:48;;;;;;;2.53;1.98;;;31.60;93.70;32.10;101081.00;;;;4977859;28;121661;-70
2023/08/16 10:03:15;;;;;;;1.75;1.65;;;31.70;93.40;32.20;101069.00;;;;4980424;28;94450;-69
2023/08/16 10:05:41;;;;;;;2.92;1.58;;;31.70;93.40;32.10;101068.00;;;;4975417;28;93274;-68
2023/08/16 10:08:09;;;;;;;2.88;1.83;;;31.70;92.90;32.10;101073.00;;;;4973870;28;123249;-69
2023/08/16 10:10:35;;;;;;;2.22;1.95;;;31.70;92.70;32.00;101069.00;;;;4977490;28;93912;-70
2023/08/16 10:13:01;;;;;;;4.35;2.28;;;31.70;92.80;32.10;101078.00;;;;4974468;28;109907;-69
2023/08/16 10:15:34;;;;;;;2.17;1.73;;;31.60;92.90;32.10;101071.00;;;;4977623;28;93063;-69
2023/08/16 10:18:02;;;;;;;1.85;1.70;;;31.60;92.90;32.10;101071.00;;;;4978716;27;93107;-70
2023/08/16 10:20:32;;;;;;;2.08;1.77;;;31.60;92.90;32.10;101062.00;;;;4977803;28;94067;-70
2023/08/16 10:23:03;;;;;;;2.08;1.42;;;31.60;92.70;32.10;101066.00;;;;4977145;28;93070;-69
2023/08/16 10:25:40;;;;;;;2.38;2.17;;;31.60;92.60;32.00;101065.00;;;;4977289;28;97509;-70
2023/08/16 10:28:07;;;;;;;1.85;1.75;;;31.60;92.60;32.00;101065.00;;;;4982293;28;115257;-69
2023/08/16 10:30:35;;;;;;;2.28;1.55;;;31.60;92.50;32.00;101065.00;;;;4980095;28;93654;-71
2023/08/16 10:33:33;;;;;;;1.90;1.55;;;31.60;92.40;32.20;101056.00;;;;4975363;28;108985;-69
2023/08/16 10:36:00;;;;;;;1.40;1.30;;;31.70;92.50;32.40;101066.00;;;;4983601;28;97690;-69
2023/08/16 10:38:41;;;;;;;3.63;2.08;;;31.90;92.10;32.60;101062.00;;;;4978547;28;93106;-70
2023/08/16 10:41:15;;;;;;;1.73;1.45;;;32.10;92.00;32.70;101058.00;;;;4975268;27;93119;-69